ADDS TAF Board (Experimental) INFO Settings
IDs: Format: Expanded Condensed

KLAS - Las Vegas/McCarran I, NV, US

Issued at 1448 UTC 27 Sep 2016
Updated at 1531 UTC 27 Sep 2016
Time1456Z 27/16Z 27/17Z 27/18Z 27/19Z 27/20Z 27/21Z 27/22Z 27/23Z 28/00Z 28/01Z 28/02Z 28/03Z 28/04Z
Type OBS PRVL PRVL PRVL PRVL PRVL PRVL PRVL PRVL PRVL PRVL PRVL PRVL PRVL
VIS 10 >6 >6 >6 >6 >6 >6 >6 >6 >6 >6 >6 >6 >6
CIG -- 250 250 250 250 250 250 250 250 250 250 250 250 140
Cover FEW BKN BKN BKN BKN BKN BKN BKN BKN BKN BKN BKN BKN BKN
FltCat VFR VFR VFR VFR VFR VFR VFR VFR VFR VFR VFR VFR VFR VFR
WX -- -- -- -- -- -- -- -- -- -- -- -- -- --
WDir VRB VRB 60 60 60 60 60 130 130 130 130 130 130 200
WSpd 0 6 7 7 7 7 7 6 6 6 6 6 6 8
WGst -- -- -- -- -- -- -- -- -- -- -- -- -- --
R01/19
XWnd VRB VRB -4 -4 -4 -4 -4 -6 -6 -6 -6 -6 -6 -1
HWnd VRB VRB 6 6 6 6 6 -2 -2 -2 -2 -2 -2 -8
R07/25
XWnd VRB VRB 4 4 4 4 4 -4 -4 -4 -4 -4 -4 -8
HWnd VRB VRB 6 6 6 6 6 5 5 5 5 5 5 -3

Raw TAF
KLAS 271448Z 2715/2812 VRB06KT P6SM BKN250
  FM271700 06007KT P6SM FEW140 BKN250
  FM272200 13006KT P6SM FEW150 BKN250
  FM280400 20008KT P6SM BKN140


Raw METAR
KLAS 271456Z 00000KT 10SM FEW180 FEW250 23/M01 A3005 RMK AO2 SLP152 T02331006 53010
KLAS 271356Z 21003KT 10SM FEW250 21/00 A3003 RMK AO2 SLP147 T02110000
KLAS 271256Z 21003KT 10SM SCT250 21/00 A3002 RMK AO2 SLP144 T02110000

METAR Board
Radar Display
Forecast Discussion

TAF Board Legend

Potential Impact
Threat None Slight Moderate High
Visibility (sm) ≥5.1 5.1>X≥3 3>X≥1 <1
Ceiling (100 ft) ≥30.1 30.1>X≥10 10>X≥5 <5
Wind Speed (kt) <10 10≤X<20 20≤X<30 ≥30
Wind Gust (kt) <15 15≤X<25 25≤X<35 ≥35
Weather No Wx Reported VCTS,-TS,-FZRA,SN TS,FZRA +TS,+FZRA,+SN